createdAt,value
2023-03-26T00:01:17.670Z,9.35
2023-03-26T00:03:46.863Z,6.45
2023-03-26T00:06:15.595Z,8.05
2023-03-26T00:08:44.972Z,9.13
2023-03-26T00:11:14.556Z,6.28
2023-03-26T00:13:43.709Z,6.05
2023-03-26T00:16:13.771Z,8.48
2023-03-26T00:18:44.509Z,5.65
2023-03-26T00:21:14.204Z,8.67
2023-03-26T00:23:41.525Z,7.57
2023-03-26T00:26:12.908Z,10.02
2023-03-26T00:28:41.890Z,8.98
2023-03-26T00:31:11.300Z,7.32
2023-03-26T00:33:40.800Z,7.22
2023-03-26T00:36:17.518Z,6.75
2023-03-26T00:38:46.885Z,7.13
2023-03-26T00:41:23.101Z,9.52
2023-03-26T00:43:53.416Z,8.02
2023-03-26T00:46:20.229Z,10.32
2023-03-26T00:48:47.441Z,7.53
2023-03-26T00:51:16.655Z,10.85
2023-03-26T00:53:48.287Z,7.20
2023-03-26T00:56:15.150Z,7.60
2023-03-26T00:58:42.234Z,7.90
2023-03-26T01:01:13.795Z,9.63
2023-03-26T01:03:45.892Z,7.85
2023-03-26T01:06:36.271Z,10.18
2023-03-26T01:09:16.028Z,8.85
2023-03-26T01:11:43.157Z,7.70
2023-03-26T01:14:17.037Z,8.73
2023-03-26T01:16:54.896Z,7.65
2023-03-26T01:19:53.061Z,7.93
2023-03-26T01:22:22.731Z,9.52
2023-03-26T01:24:53.834Z,9.25
2023-03-26T01:27:35.834Z,6.85
2023-03-26T01:32:52.087Z,10.00
2023-03-26T01:35:27.400Z,9.10
2023-03-26T01:38:15.341Z,10.23
2023-03-26T01:41:00.538Z,7.72
2023-03-26T01:43:41.756Z,6.97
2023-03-26T01:46:11.809Z,9.93
2023-03-26T01:48:41.869Z,8.20
2023-03-26T01:51:10.431Z,11.35
2023-03-26T01:53:44.728Z,9.57
2023-03-26T01:56:40.492Z,12.52
2023-03-26T01:59:25.301Z,11.20
2023-03-26T02:02:21.695Z,10.20
2023-03-26T02:05:07.303Z,9.38
2023-03-26T02:07:41.107Z,10.80
2023-03-26T02:10:29.725Z,9.05
2023-03-26T02:12:57.686Z,12.18
2023-03-26T02:15:24.473Z,9.52
2023-03-26T02:17:53.028Z,11.15
2023-03-26T02:20:21.161Z,12.60
2023-03-26T02:22:48.372Z,9.07
2023-03-26T02:25:18.036Z,9.00
2023-03-26T02:27:45.967Z,10.20
2023-03-26T02:30:17.450Z,8.45
2023-03-26T02:32:44.348Z,12.50
2023-03-26T02:35:12.880Z,10.13
2023-03-26T02:37:40.472Z,12.85
2023-03-26T02:40:11.367Z,10.90
2023-03-26T02:42:38.464Z,13.00
2023-03-26T02:45:06.794Z,12.07
2023-03-26T02:47:33.881Z,11.27
2023-03-26T02:50:01.493Z,12.50
2023-03-26T02:52:28.259Z,9.27
2023-03-26T02:54:55.462Z,12.50
2023-03-26T02:57:23.564Z,13.05
2023-03-26T02:59:50.396Z,13.68
2023-03-26T03:02:18.409Z,11.82
2023-03-26T03:04:45.545Z,10.77
2023-03-26T03:07:14.866Z,15.52
2023-03-26T03:09:41.890Z,12.05
2023-03-26T03:12:08.684Z,14.82
2023-03-26T03:14:35.605Z,11.73
2023-03-26T03:17:02.445Z,11.95
2023-03-26T03:19:29.250Z,14.52
2023-03-26T03:21:56.188Z,11.52
2023-03-26T03:24:23.545Z,13.27
2023-03-26T03:26:50.420Z,13.40
2023-03-26T03:29:17.379Z,13.63
2023-03-26T03:31:44.231Z,14.07
2023-03-26T03:34:10.943Z,14.98
2023-03-26T03:36:38.590Z,8.30
2023-03-26T03:39:05.606Z,13.07
2023-03-26T03:41:32.279Z,13.23
2023-03-26T03:43:59.909Z,10.00
2023-03-26T03:46:26.807Z,14.27
2023-03-26T03:48:53.527Z,10.30
2023-03-26T03:51:20.273Z,10.45
2023-03-26T03:53:47.566Z,13.15
2023-03-26T03:56:14.719Z,10.93
2023-03-26T03:58:42.267Z,13.23
2023-03-26T04:01:09.139Z,10.57
2023-03-26T04:03:38.830Z,12.27
2023-03-26T04:06:11.182Z,10.40
2023-03-26T04:08:38.415Z,9.25
2023-03-26T04:11:05.723Z,15.63
2023-03-26T04:13:32.490Z,13.40
2023-03-26T04:15:59.468Z,11.10
2023-03-26T04:18:27.746Z,12.60
2023-03-26T04:20:55.750Z,9.05
2023-03-26T04:23:23.203Z,9.82
2023-03-26T04:25:53.910Z,11.75
2023-03-26T04:28:42.336Z,10.48
2023-03-26T04:31:13.967Z,17.95
2023-03-26T04:36:09.087Z,12.40
2023-03-26T04:38:42.317Z,9.60
2023-03-26T04:41:14.027Z,15.05
2023-03-26T04:43:47.553Z,10.45
2023-03-26T04:46:14.561Z,11.35
2023-03-26T04:48:41.494Z,10.32
2023-03-26T04:51:10.040Z,9.73
2023-03-26T04:53:36.936Z,10.10
2023-03-26T04:56:15.313Z,10.57
2023-03-26T04:58:41.983Z,9.35
2023-03-26T05:01:11.074Z,7.80
2023-03-26T05:03:39.238Z,10.10
2023-03-26T05:06:06.276Z,11.07
2023-03-26T05:08:32.950Z,11.90
2023-03-26T05:10:59.709Z,8.55
2023-03-26T05:13:26.448Z,7.88
2023-03-26T05:15:53.218Z,11.20
2023-03-26T05:18:19.996Z,10.82
2023-03-26T05:20:46.934Z,8.70
2023-03-26T05:23:13.822Z,9.45
2023-03-26T05:25:40.777Z,10.18
2023-03-26T05:28:07.506Z,13.32
2023-03-26T05:30:34.252Z,13.15
2023-03-26T05:33:04.360Z,11.15
2023-03-26T05:35:31.239Z,7.30
2023-03-26T05:37:58.126Z,15.05
2023-03-26T05:40:24.809Z,10.90
2023-03-26T05:42:51.491Z,12.07
2023-03-26T05:45:18.346Z,8.65
2023-03-26T05:47:45.361Z,9.05
2023-03-26T05:50:12.137Z,7.00
2023-03-26T05:52:38.915Z,11.02
2023-03-26T05:55:06.642Z,7.85
2023-03-26T05:57:35.378Z,7.88
2023-03-26T06:00:04.561Z,12.27
2023-03-26T06:02:31.657Z,12.82
2023-03-26T06:04:58.388Z,8.63
2023-03-26T06:07:27.050Z,8.02
2023-03-26T06:09:53.861Z,9.10
2023-03-26T06:12:20.657Z,11.20
2023-03-26T06:14:47.397Z,11.60
2023-03-26T06:17:14.332Z,11.10
2023-03-26T06:19:41.110Z,10.27
2023-03-26T06:22:07.903Z,10.40
2023-03-26T06:24:34.908Z,10.02
2023-03-26T06:27:01.720Z,8.90
2023-03-26T06:29:28.499Z,11.10
2023-03-26T06:31:55.374Z,11.60
2023-03-26T06:34:22.118Z,7.75
2023-03-26T06:36:49.058Z,10.63
2023-03-26T06:39:16.208Z,8.27
2023-03-26T06:41:42.984Z,9.45
2023-03-26T06:44:11.221Z,8.95
2023-03-26T06:46:39.059Z,10.43
2023-03-26T06:49:06.043Z,10.02
2023-03-26T06:51:32.876Z,8.50
2023-03-26T06:53:59.644Z,8.18
2023-03-26T06:56:26.331Z,10.88
2023-03-26T06:58:52.990Z,9.20
2023-03-26T07:01:19.969Z,10.52
2023-03-26T07:03:46.774Z,8.77
2023-03-26T07:06:13.508Z,8.95
2023-03-26T07:08:40.354Z,10.57
2023-03-26T07:11:07.319Z,11.07
2023-03-26T07:13:34.166Z,10.23
2023-03-26T07:16:01.074Z,9.45
2023-03-26T07:18:27.778Z,12.02
2023-03-26T07:20:55.208Z,10.85
2023-03-26T07:23:22.307Z,10.82
2023-03-26T07:25:49.739Z,12.88
2023-03-26T07:28:33.782Z,9.23
2023-03-26T07:31:20.310Z,10.85
2023-03-26T07:34:02.446Z,12.45
2023-03-26T07:36:39.177Z,7.40
2023-03-26T07:39:38.644Z,8.02
2023-03-26T07:42:24.677Z,11.05
2023-03-26T07:44:57.187Z,11.07
2023-03-26T07:47:33.145Z,11.23
2023-03-26T07:50:00.583Z,12.48
2023-03-26T07:52:28.308Z,10.95
2023-03-26T07:54:55.741Z,8.05
2023-03-26T07:58:03.418Z,8.18
2023-03-26T08:00:44.326Z,10.70
2023-03-26T08:03:42.235Z,11.27
2023-03-26T08:06:20.488Z,11.07
2023-03-26T08:08:50.989Z,8.23
2023-03-26T08:11:52.316Z,9.45
2023-03-26T08:14:33.721Z,10.77
2023-03-26T08:17:00.717Z,7.18
2023-03-26T08:19:50.873Z,9.30
2023-03-26T08:22:27.420Z,10.75
2023-03-26T08:25:01.283Z,11.30
2023-03-26T08:27:37.915Z,10.98
2023-03-26T08:30:23.777Z,10.90
2023-03-26T08:32:59.580Z,10.57
2023-03-26T08:35:28.260Z,8.65
2023-03-26T08:37:55.012Z,11.73
2023-03-26T08:40:31.721Z,7.72
2023-03-26T08:43:28.375Z,10.50
2023-03-26T08:46:22.815Z,9.30
2023-03-26T08:49:01.855Z,11.60
2023-03-26T08:51:28.637Z,12.95
2023-03-26T08:53:58.161Z,9.10
2023-03-26T08:56:40.169Z,11.90
2023-03-26T08:59:25.763Z,9.95
2023-03-26T09:02:10.603Z,10.40
2023-03-26T09:04:48.981Z,11.07
2023-03-26T09:07:21.636Z,11.18
2023-03-26T09:10:06.255Z,8.35
2023-03-26T09:12:54.016Z,8.43
2023-03-26T09:15:47.120Z,10.70
2023-03-26T09:18:51.677Z,16.67
2023-03-26T09:21:44.582Z,10.18
2023-03-26T09:24:36.092Z,12.52
2023-03-26T09:27:17.893Z,12.10
2023-03-26T09:29:56.800Z,9.98
2023-03-26T09:32:35.695Z,12.48
2023-03-26T09:35:25.985Z,9.70
2023-03-26T09:38:01.016Z,11.20
2023-03-26T09:40:49.209Z,10.73
2023-03-26T09:43:54.949Z,10.73
2023-03-26T09:46:21.718Z,10.48
2023-03-26T09:49:21.511Z,10.15
2023-03-26T09:52:07.134Z,9.05
2023-03-26T09:54:53.229Z,6.65
2023-03-26T09:57:58.028Z,11.70
2023-03-26T10:00:25.446Z,9.77
2023-03-26T10:03:01.437Z,9.25
2023-03-26T10:05:31.299Z,8.15
2023-03-26T10:08:20.380Z,9.07
2023-03-26T10:11:13.130Z,13.35
2023-03-26T10:13:42.775Z,8.65
2023-03-26T10:16:43.734Z,8.50
2023-03-26T10:19:22.492Z,8.88
2023-03-26T10:22:09.472Z,7.80
2023-03-26T10:25:13.691Z,6.07
2023-03-26T10:27:51.567Z,5.63
2023-03-26T10:30:18.208Z,6.82
2023-03-26T10:33:17.105Z,5.80
2023-03-26T10:36:21.378Z,6.45
2023-03-26T10:38:50.986Z,8.27
2023-03-26T10:41:29.067Z,6.18
2023-03-26T10:44:08.371Z,10.93
2023-03-26T10:46:35.949Z,7.90
2023-03-26T10:49:14.940Z,9.63
2023-03-26T10:51:53.534Z,11.82
2023-03-26T10:55:02.671Z,8.98
2023-03-26T10:58:07.692Z,6.80
2023-03-26T11:00:42.735Z,8.73
2023-03-26T11:03:27.321Z,5.55
2023-03-26T11:06:20.749Z,7.65
2023-03-26T11:09:12.523Z,7.85
2023-03-26T11:14:37.187Z,6.93
2023-03-26T11:17:39.352Z,8.15
2023-03-26T11:20:17.425Z,8.43
2023-03-26T11:23:11.832Z,7.32
2023-03-26T11:25:57.516Z,5.00
2023-03-26T11:29:32.384Z,5.28
2023-03-26T11:32:14.176Z,4.65
2023-03-26T11:34:49.209Z,7.15
2023-03-26T11:37:24.021Z,4.25
2023-03-26T11:39:56.491Z,7.93
2023-03-26T11:42:24.975Z,6.50
2023-03-26T11:45:00.690Z,7.30
2023-03-26T11:47:46.413Z,5.18
2023-03-26T11:50:24.131Z,7.13
2023-03-26T11:52:51.257Z,6.97
2023-03-26T11:55:19.330Z,7.03
2023-03-26T11:57:53.699Z,6.13
2023-03-26T12:00:26.069Z,4.55
2023-03-26T12:02:57.414Z,4.50
2023-03-26T12:05:26.753Z,6.03
2023-03-26T12:07:57.343Z,6.53
2023-03-26T12:10:37.579Z,6.77
2023-03-26T12:13:27.699Z,6.00
2023-03-26T12:16:01.145Z,6.75
2023-03-26T12:18:28.631Z,6.15
2023-03-26T12:21:08.765Z,5.10
2023-03-26T12:23:56.451Z,5.20
2023-03-26T12:26:35.654Z,7.38
2023-03-26T12:29:13.974Z,3.92
2023-03-26T12:32:06.426Z,6.03
2023-03-26T12:34:36.741Z,7.03
2023-03-26T12:37:05.830Z,4.85
2023-03-26T12:40:08.758Z,5.15
2023-03-26T12:44:51.383Z,4.07
2023-03-26T12:45:24.199Z,6.30
2023-03-26T12:47:57.927Z,5.78
2023-03-26T12:50:57.718Z,4.85
2023-03-26T12:54:16.109Z,6.18
2023-03-26T12:57:11.341Z,6.30
2023-03-26T12:59:48.847Z,6.32
2023-03-26T13:02:32.475Z,6.18
2023-03-26T13:05:20.287Z,4.30
2023-03-26T13:08:11.356Z,4.80
2023-03-26T13:10:53.440Z,5.88
2023-03-26T13:13:42.197Z,7.18
2023-03-26T13:16:25.814Z,5.88
2023-03-26T13:19:08.765Z,5.28
2023-03-26T13:22:00.359Z,4.10
2023-03-26T13:24:53.637Z,6.82
2023-03-26T13:27:35.273Z,7.00
2023-03-26T13:33:01.189Z,4.20
2023-03-26T13:35:46.814Z,7.60
2023-03-26T13:38:22.705Z,7.78
2023-03-26T13:41:04.364Z,7.75
2023-03-26T13:46:28.109Z,6.00
2023-03-26T13:49:00.147Z,8.90
2023-03-26T13:51:27.110Z,8.60
2023-03-26T13:54:05.365Z,5.88
2023-03-26T13:56:43.294Z,6.70
2023-03-26T13:59:16.404Z,8.07
2023-03-26T14:02:03.822Z,6.82
2023-03-26T14:04:37.091Z,7.43
2023-03-26T14:07:21.095Z,4.05
2023-03-26T14:09:54.719Z,6.15
2023-03-26T14:12:58.892Z,8.65
2023-03-26T14:15:36.428Z,4.82
2023-03-26T14:18:15.917Z,7.15
2023-03-26T14:21:07.554Z,6.13
2023-03-26T14:23:52.554Z,6.85
2023-03-26T14:26:43.331Z,4.82
2023-03-26T14:29:12.893Z,3.42
2023-03-26T14:31:45.927Z,8.70
2023-03-26T14:34:53.051Z,4.30
2023-03-26T14:37:39.538Z,6.40
2023-03-26T14:40:25.177Z,5.70
2023-03-26T14:43:16.287Z,5.78
2023-03-26T14:46:14.164Z,4.88
2023-03-26T14:48:59.509Z,4.57
2023-03-26T14:51:59.139Z,4.72
2023-03-26T14:54:29.663Z,5.70
2023-03-26T14:57:52.471Z,5.10
2023-03-26T15:00:31.311Z,6.00
2023-03-26T15:03:07.897Z,6.07
2023-03-26T15:06:19.745Z,3.15
2023-03-26T15:09:07.627Z,6.10
2023-03-26T15:11:39.871Z,4.63
2023-03-26T15:14:44.261Z,5.28
2023-03-26T15:17:16.889Z,5.50
2023-03-26T15:19:49.522Z,6.40
2023-03-26T15:22:31.592Z,5.75
2023-03-26T15:25:04.173Z,7.47
2023-03-26T15:27:36.620Z,5.63
2023-03-26T15:30:28.310Z,5.28
2023-03-26T15:33:35.029Z,4.28
2023-03-26T15:36:39.262Z,4.72
2023-03-26T15:39:14.834Z,7.30
2023-03-26T15:42:09.170Z,5.82
2023-03-26T15:44:53.916Z,5.55
2023-03-26T15:47:49.706Z,5.32
2023-03-26T15:50:38.114Z,3.88
2023-03-26T15:53:29.862Z,5.53
2023-03-26T15:58:30.791Z,4.65
2023-03-26T16:01:07.594Z,5.47
2023-03-26T16:03:44.497Z,4.60
2023-03-26T16:06:27.867Z,4.97
2023-03-26T16:09:07.928Z,2.88
2023-03-26T16:11:49.708Z,4.88
2023-03-26T16:16:55.481Z,6.35
2023-03-26T16:19:22.786Z,6.35
2023-03-26T16:22:11.861Z,3.90
2023-03-26T16:24:44.792Z,6.30
2023-03-26T16:27:15.253Z,7.13
2023-03-26T16:30:09.481Z,5.63
2023-03-26T16:32:48.171Z,6.13
2023-03-26T16:35:14.888Z,4.70
2023-03-26T16:37:50.728Z,5.32
2023-03-26T16:40:17.593Z,6.55
2023-03-26T16:43:41.693Z,6.22
2023-03-26T16:46:27.402Z,6.05
2023-03-26T16:49:05.790Z,5.63
2023-03-26T16:51:50.955Z,6.65
2023-03-26T16:54:23.623Z,4.35
2023-03-26T16:56:57.201Z,3.75
2023-03-26T16:59:24.113Z,4.97
2023-03-26T17:01:59.608Z,6.68
2023-03-26T17:04:30.529Z,3.50
2023-03-26T17:07:08.549Z,4.25
2023-03-26T17:10:03.310Z,5.35
2023-03-26T17:12:59.095Z,5.28
2023-03-26T17:15:53.163Z,8.40
2023-03-26T17:18:42.834Z,8.02
2023-03-26T17:21:17.051Z,2.78
2023-03-26T17:24:16.172Z,3.30
2023-03-26T17:27:01.129Z,5.07
2023-03-26T17:30:03.431Z,3.15
2023-03-26T17:33:07.279Z,7.00
2023-03-26T17:35:48.845Z,4.90
2023-03-26T17:38:18.622Z,4.88
2023-03-26T17:40:45.300Z,4.68
2023-03-26T17:43:32.356Z,3.08
2023-03-26T17:46:03.494Z,4.28
2023-03-26T17:48:36.547Z,6.03
2023-03-26T17:51:41.552Z,7.13
2023-03-26T17:54:17.647Z,4.43
2023-03-26T17:56:45.005Z,4.57
2023-03-26T17:59:23.200Z,4.40
2023-03-26T18:01:55.417Z,4.10
2023-03-26T18:04:36.449Z,4.35
2023-03-26T18:07:05.907Z,3.38
2023-03-26T18:09:57.102Z,7.30
2023-03-26T18:12:34.897Z,4.68
2023-03-26T18:15:22.097Z,4.93
2023-03-26T18:17:49.038Z,4.30
2023-03-26T18:20:23.232Z,4.30
2023-03-26T18:22:51.723Z,2.28
2023-03-26T18:25:33.729Z,4.20
2023-03-26T18:28:02.409Z,5.13
2023-03-26T18:30:29.368Z,3.17
2023-03-26T18:33:11.978Z,4.88
2023-03-26T18:35:50.872Z,3.40
2023-03-26T18:38:35.442Z,3.38
2023-03-26T18:41:06.470Z,4.85
2023-03-26T18:43:44.031Z,2.20
2023-03-26T18:46:14.327Z,3.65
2023-03-26T18:48:41.727Z,5.05
2023-03-26T18:51:08.733Z,6.35
2023-03-26T18:53:45.195Z,4.68
2023-03-26T18:56:30.374Z,3.67
2023-03-26T18:58:59.526Z,6.70
2023-03-26T19:01:31.719Z,3.00
2023-03-26T19:04:05.488Z,5.85
2023-03-26T19:06:38.300Z,5.38
2023-03-26T19:09:16.372Z,4.20
2023-03-26T19:11:57.154Z,6.47
2023-03-26T19:14:28.655Z,3.05
2023-03-26T19:17:01.172Z,2.83
2023-03-26T19:19:37.738Z,5.22
2023-03-26T19:22:06.912Z,4.15
2023-03-26T19:24:34.785Z,6.13
2023-03-26T19:27:02.587Z,4.93
2023-03-26T19:29:32.806Z,4.95
2023-03-26T19:32:32.365Z,3.80
2023-03-26T19:35:00.664Z,4.68
2023-03-26T19:37:30.043Z,4.30
2023-03-26T19:40:21.184Z,4.47
2023-03-26T19:42:49.319Z,4.57
2023-03-26T19:45:19.728Z,5.65
2023-03-26T19:47:50.344Z,3.65
2023-03-26T19:50:28.349Z,4.75
2023-03-26T19:53:20.720Z,3.85
2023-03-26T19:56:12.955Z,5.53
2023-03-26T19:58:43.013Z,7.32
2023-03-26T20:01:21.659Z,12.38
2023-03-26T20:03:52.823Z,4.88
2023-03-26T20:06:28.139Z,5.90
2023-03-26T20:09:05.097Z,5.50
2023-03-26T20:11:36.510Z,4.22
2023-03-26T20:14:15.087Z,5.00
2023-03-26T20:16:43.881Z,4.93
2023-03-26T20:19:13.088Z,6.97
2023-03-26T20:21:40.917Z,3.97
2023-03-26T20:24:15.021Z,4.05
2023-03-26T20:26:42.389Z,4.25
2023-03-26T20:29:10.058Z,4.93
2023-03-26T20:31:37.634Z,4.60
2023-03-26T20:34:06.600Z,6.22
2023-03-26T20:36:35.355Z,5.45
2023-03-26T20:39:08.011Z,6.70
2023-03-26T20:41:38.247Z,4.80
2023-03-26T20:44:15.180Z,4.22
2023-03-26T20:46:43.145Z,5.30
2023-03-26T20:49:11.182Z,5.65
2023-03-26T20:51:38.994Z,5.18
2023-03-26T20:54:08.879Z,5.78
2023-03-26T20:56:37.578Z,6.03
2023-03-26T20:59:10.989Z,7.65
2023-03-26T21:01:38.698Z,4.63
2023-03-26T21:04:06.413Z,3.80
2023-03-26T21:06:33.236Z,7.95
2023-03-26T21:09:00.327Z,4.50
2023-03-26T21:11:47.269Z,4.15
2023-03-26T21:14:28.433Z,4.75
2023-03-26T21:16:55.591Z,3.90
2023-03-26T21:19:22.806Z,4.80
2023-03-26T21:21:59.028Z,5.50
2023-03-26T21:24:51.093Z,5.13
2023-03-26T21:27:26.744Z,4.50
2023-03-26T21:29:55.026Z,4.15
2023-03-26T21:32:22.647Z,4.88
2023-03-26T21:34:58.458Z,4.53
2023-03-26T21:37:26.503Z,4.95
2023-03-26T21:39:53.477Z,2.55
2023-03-26T21:42:20.512Z,4.13
2023-03-26T21:44:47.732Z,3.78
2023-03-26T21:47:15.098Z,3.22
2023-03-26T21:49:42.031Z,3.90
2023-03-26T21:52:14.233Z,3.88
2023-03-26T21:54:43.248Z,4.63
2023-03-26T21:57:17.309Z,3.65
2023-03-26T22:00:15.182Z,3.15
2023-03-26T22:02:45.237Z,3.30
2023-03-26T22:05:17.080Z,3.08
2023-03-26T22:07:54.817Z,4.10
2023-03-26T22:10:21.710Z,5.05
2023-03-26T22:12:48.852Z,2.08
2023-03-26T22:15:15.695Z,2.63
2023-03-26T22:17:42.783Z,3.67
2023-03-26T22:20:14.650Z,4.30
2023-03-26T22:22:48.598Z,4.65
2023-03-26T22:25:16.466Z,2.38
2023-03-26T22:27:44.387Z,8.88
2023-03-26T22:30:12.998Z,3.30
2023-03-26T22:32:40.254Z,3.53
2023-03-26T22:35:07.533Z,4.13
2023-03-26T22:37:35.610Z,3.22
2023-03-26T22:40:05.413Z,6.32
2023-03-26T22:42:32.100Z,3.85
2023-03-26T22:44:58.848Z,2.47
2023-03-26T22:47:25.614Z,2.80
2023-03-26T22:49:52.393Z,2.45
2023-03-26T22:52:19.084Z,3.15
2023-03-26T22:54:45.897Z,4.78
2023-03-26T22:57:12.648Z,3.47
2023-03-26T22:59:39.351Z,2.15
2023-03-26T23:02:07.258Z,1.92
2023-03-26T23:04:34.166Z,3.03
2023-03-26T23:07:00.925Z,3.00
2023-03-26T23:09:27.732Z,4.90
2023-03-26T23:11:54.526Z,4.32
2023-03-26T23:14:21.773Z,3.20
2023-03-26T23:16:48.693Z,4.30
2023-03-26T23:19:15.709Z,3.47
2023-03-26T23:21:42.474Z,3.35
2023-03-26T23:24:09.277Z,3.67
2023-03-26T23:26:49.683Z,2.55
2023-03-26T23:29:18.264Z,3.65
2023-03-26T23:31:45.016Z,2.25
2023-03-26T23:34:13.274Z,3.55
2023-03-26T23:36:40.884Z,4.07
2023-03-26T23:39:08.397Z,4.00
2023-03-26T23:41:35.189Z,2.15
2023-03-26T23:44:01.987Z,1.50
2023-03-26T23:46:34.960Z,2.38
2023-03-26T23:49:04.398Z,2.67
2023-03-26T23:51:31.880Z,3.60
2023-03-26T23:54:02.375Z,2.55
2023-03-26T23:56:30.047Z,3.05
2023-03-26T23:58:57.279Z,2.63
